Time;durP1;ratioP1;P1;durP2;ratioP2;P2;SDS_P1;SDS_P2;PMS_P1;PMS_P2;Temp;Humidity;BMP_temperature;BMP_pressure;BME280_temperature;BME280_humidity;BME280_pressure;Samples;Min_cycle;Max_cycle;Signal;HPM_P1;HPM_P2
2022/06/03 00:02:32;;;;;;;;;;;;;;;;;;5117942;28;1069;-78
2022/06/03 00:05:16;;;;;;;;;;;;;;;;;;5083982;28;1259;-77
2022/06/03 00:08:02;;;;;;;;;;;;;;;;;;5084463;28;1143;-78
2022/06/03 00:10:49;;;;;;;;;;;;;;;;;;5086123;28;1939;-77
2022/06/03 00:13:33;;;;;;;;;;;;;;;;;;5086314;28;1273;-77
2022/06/03 00:16:05;;;;;;;;;;;;;;;;;;5087818;28;1309;-78
2022/06/03 00:18:30;;;;;;;;;;;;;;;;;;5088402;28;1281;-77
2022/06/03 00:21:03;;;;;;;;;;;;;;;;;;5090048;28;1215;-77
2022/06/03 00:23:46;;;;;;;;;;;;;;;;;;5087648;28;1163;-78
2022/06/03 00:26:12;;;;;;;;;;;;;;;;;;5087423;28;1274;-78
2022/06/03 00:28:55;;;;;;;;;;;;;;;;;;5108710;28;1212;-78
2022/06/03 00:31:29;;;;;;;;;;;;;;;;;;5090345;28;1266;-77
2022/06/03 00:33:55;;;;;;;;;;;;;;;;;;5087027;28;1291;-77
2022/06/03 00:36:39;;;;;;;;;;;;;;;;;;5087272;28;1306;-77
2022/06/03 00:39:17;;;;;;;;;;;;;;;;;;5111400;27;1298;-78
2022/06/03 00:41:48;;;;;;;;;;;;;;;;;;5108726;27;1211;-78
2022/06/03 00:44:16;;;;;;;;;;;;;;;;;;5127564;27;1219;-78
2022/06/03 00:46:41;;;;;;;;;;;;;;;;;;5110336;27;1210;-78
2022/06/03 00:49:06;;;;;;;;;;;;;;;;;;5124420;27;1901;-77
2022/06/03 00:51:47;;;;;;;;;;;;;;;;;;5110071;27;1317;-77
2022/06/03 00:54:21;;;;;;;;;;;;;;;;;;5089514;27;1278;-77
2022/06/03 00:56:53;;;;;;;;;;;;;;;;;;5089244;28;1206;-78
2022/06/03 00:59:46;;;;;;;;;;;;;;;;;;5100190;27;1282;-77
2022/06/03 01:02:20;;;;;;;;;;;;;;;;;;5128259;27;1024;-78
2022/06/03 01:04:56;;;;;;;;;;;;;;;;;;5108298;27;1170;-77
2022/06/03 01:07:33;;;;;;;;;;;;;;;;;;5108286;27;1326;-78
2022/06/03 01:09:58;;;;;;;;;;;;;;;;;;5109716;27;1898;-77
2022/06/03 01:12:31;;;;;;;;;;;;;;;;;;5110870;27;1335;-78
2022/06/03 01:15:05;;;;;;;;;;;;;;;;;;5129694;27;1227;-78
2022/06/03 01:17:40;;;;;;;;;;;;;;;;;;5110494;27;1178;-78
2022/06/03 01:20:41;;;;;;;;;;;;;;;;;;5100216;28;1198;-77
2022/06/03 01:23:20;;;;;;;;;;;;;;;;;;5025499;28;1243;-78
2022/06/03 01:25:46;;;;;;;;;;;;;;;;;;5094505;28;1395;-78
2022/06/03 01:28:30;;;;;;;;;;;;;;;;;;5097728;27;1211;-78
2022/06/03 01:31:14;;;;;;;;;;;;;;;;;;5106211;27;1960;-78
2022/06/03 01:33:58;;;;;;;;;;;;;;;;;;5095488;28;1238;-78
2022/06/03 01:36:23;;;;;;;;;;;;;;;;;;5096701;27;1301;-78
2022/06/03 01:38:54;;;;;;;;;;;;;;;;;;5099009;28;1278;-78
2022/06/03 01:41:26;;;;;;;;;;;;;;;;;;5086024;28;1251;-78
2022/06/03 01:43:57;;;;;;;;;;;;;;;;;;5106123;28;1144;-78
2022/06/03 01:46:25;;;;;;;;;;;;;;;;;;5086323;28;1142;-78
2022/06/03 01:48:57;;;;;;;;;;;;;;;;;;5084788;28;1906;-78
2022/06/03 01:51:34;;;;;;;;;;;;;;;;;;5087410;28;1168;-78
2022/06/03 01:54:18;;;;;;;;;;;;;;;;;;5086621;28;1269;-78
2022/06/03 01:56:43;;;;;;;;;;;;;;;;;;5085724;28;1318;-77
2022/06/03 01:59:34;;;;;;;;;;;;;;;;;;5102450;27;1155;-78
2022/06/03 02:02:09;;;;;;;;;;;;;;;;;;5095630;28;1304;-77
2022/06/03 02:04:54;;;;;;;;;;;;;;;;;;5083823;28;1380;-78
2022/06/03 02:07:19;;;;;;;;;;;;;;;;;;5081294;28;1384;-78
2022/06/03 02:09:47;;;;;;;;;;;;;;;;;;5087903;28;1918;-78
2022/06/03 02:12:31;;;;;;;;;;;;;;;;;;5099620;28;1045;-78
2022/06/03 02:15:06;;;;;;;;;;;;;;;;;;5106955;28;1291;-78
2022/06/03 02:17:50;;;;;;;;;;;;;;;;;;5085094;28;1136;-78
2022/06/03 02:20:18;;;;;;;;;;;;;;;;;;5082989;28;1211;-78
2022/06/03 02:23:03;;;;;;;;;;;;;;;;;;5086766;28;1294;-77
2022/06/03 02:25:46;;;;;;;;;;;;;;;;;;5081633;28;1514;-78
2022/06/03 02:28:26;;;;;;;;;;;;;;;;;;5103962;28;1216;-78
2022/06/03 02:31:14;;;;;;;;;;;;;;;;;;5104533;27;1950;-78
2022/06/03 02:33:52;;;;;;;;;;;;;;;;;;5099996;27;1216;-78
2022/06/03 02:36:44;;;;;;;;;;;;;;;;;;5079055;28;1318;-79
2022/06/03 02:39:09;;;;;;;;;;;;;;;;;;5098427;28;1203;-78
2022/06/03 02:41:44;;;;;;;;;;;;;;;;;;5093233;27;1231;-78
2022/06/03 02:44:16;;;;;;;;;;;;;;;;;;5101056;27;1294;-78
2022/06/03 02:46:52;;;;;;;;;;;;;;;;;;5107575;27;1191;-78
2022/06/03 02:49:37;;;;;;;;;;;;;;;;;;5103183;27;1994;-78
2022/06/03 02:52:17;;;;;;;;;;;;;;;;;;5086043;28;1276;-78
2022/06/03 02:54:48;;;;;;;;;;;;;;;;;;5086660;28;1191;-77
2022/06/03 02:57:27;;;;;;;;;;;;;;;;;;5099632;28;1031;-78
2022/06/03 02:59:58;;;;;;;;;;;;;;;;;;5085213;28;1203;-78
2022/06/03 03:02:23;;;;;;;;;;;;;;;;;;5104286;28;1171;-78
2022/06/03 03:05:08;;;;;;;;;;;;;;;;;;5103441;28;1225;-78
2022/06/03 03:07:47;;;;;;;;;;;;;;;;;;5079679;28;1359;-78
2022/06/03 03:10:20;;;;;;;;;;;;;;;;;;5111764;27;1963;-77
2022/06/03 03:12:45;;;;;;;;;;;;;;;;;;5107050;27;1273;-78
2022/06/03 03:15:11;;;;;;;;;;;;;;;;;;5091401;28;1274;-78
2022/06/03 03:17:46;;;;;;;;;;;;;;;;;;5082944;28;1321;-78
2022/06/03 03:20:21;;;;;;;;;;;;;;;;;;5085282;28;1223;-78
2022/06/03 03:23:19;;;;;;;;;;;;;;;;;;5085775;28;1151;-77
2022/06/03 03:26:03;;;;;;;;;;;;;;;;;;5051584;27;1295;-77
2022/06/03 03:28:47;;;;;;;;;;;;;;;;;;5124209;27;1278;-78
2022/06/03 03:31:19;;;;;;;;;;;;;;;;;;5125685;27;1941;-78
2022/06/03 03:33:56;;;;;;;;;;;;;;;;;;5106079;27;1163;-78
2022/06/03 03:36:25;;;;;;;;;;;;;;;;;;5122058;27;1131;-78
2022/06/03 03:38:59;;;;;;;;;;;;;;;;;;5104441;27;1199;-77
2022/06/03 03:41:51;;;;;;;;;;;;;;;;;;5096332;28;1199;-77
2022/06/03 03:44:22;;;;;;;;;;;;;;;;;;5067695;28;1289;-77
2022/06/03 03:47:01;;;;;;;;;;;;;;;;;;5085513;28;1223;-78
2022/06/03 03:49:36;;;;;;;;;;;;;;;;;;5104045;28;1905;-77
2022/06/03 03:52:11;;;;;;;;;;;;;;;;;;5105724;28;1299;-77
2022/06/03 03:54:55;;;;;;;;;;;;;;;;;;5098052;28;1172;-78
2022/06/03 03:57:20;;;;;;;;;;;;;;;;;;5101298;28;1206;-78
2022/06/03 03:59:55;;;;;;;;;;;;;;;;;;5099949;28;1392;-77
2022/06/03 04:02:23;;;;;;;;;;;;;;;;;;5086425;28;1249;-78
2022/06/03 04:05:01;;;;;;;;;;;;;;;;;;5102927;28;1085;-77
2022/06/03 04:07:47;;;;;;;;;;;;;;;;;;5083733;28;1287;-77
2022/06/03 04:10:21;;;;;;;;;;;;;;;;;;5083512;28;1951;-78
2022/06/03 04:12:58;;;;;;;;;;;;;;;;;;5086132;28;1341;-78
2022/06/03 04:15:35;;;;;;;;;;;;;;;;;;5091182;28;1300;-77
2022/06/03 04:18:07;;;;;;;;;;;;;;;;;;5126331;28;1132;-78
2022/06/03 04:20:52;;;;;;;;;;;;;;;;;;5101929;28;1219;-77
2022/06/03 04:23:27;;;;;;;;;;;;;;;;;;5104959;28;1285;-77
2022/06/03 04:25:52;;;;;;;;;;;;;;;;;;5103064;28;1222;-77
2022/06/03 04:28:35;;;;;;;;;;;;;;;;;;5125056;28;1109;-77
2022/06/03 04:31:20;;;;;;;;;;;;;;;;;;5105149;28;1957;-77
2022/06/03 04:33:51;;;;;;;;;;;;;;;;;;5104993;28;1154;-77
2022/06/03 04:36:17;;;;;;;;;;;;;;;;;;5103516;28;1218;-77
2022/06/03 04:39:00;;;;;;;;;;;;;;;;;;5102721;28;1341;-78
2022/06/03 04:41:26;;;;;;;;;;;;;;;;;;5120531;28;1305;-77
2022/06/03 04:44:10;;;;;;;;;;;;;;;;;;5108284;28;1229;-77
2022/06/03 04:46:47;;;;;;;;;;;;;;;;;;5103237;28;1298;-77
2022/06/03 04:49:31;;;;;;;;;;;;;;;;;;5124517;28;1960;-77
2022/06/03 04:52:15;;;;;;;;;;;;;;;;;;5120034;28;1211;-76
2022/06/03 04:54:58;;;;;;;;;;;;;;;;;;5120458;28;1148;-76
2022/06/03 04:57:27;;;;;;;;;;;;;;;;;;5102224;28;1155;-76
2022/06/03 05:00:08;;;;;;;;;;;;;;;;;;5108765;27;1313;-77
2022/06/03 05:02:36;;;;;;;;;;;;;;;;;;5110208;27;1203;-76
2022/06/03 05:05:11;;;;;;;;;;;;;;;;;;5108484;27;1231;-76
2022/06/03 05:07:54;;;;;;;;;;;;;;;;;;5126136;27;1223;-78
2022/06/03 05:10:23;;;;;;;;;;;;;;;;;;5107969;27;1890;-77
2022/06/03 05:12:54;;;;;;;;;;;;;;;;;;5098680;28;1186;-78
2022/06/03 05:15:28;;;;;;;;;;;;;;;;;;5088917;28;1234;-79
2022/06/03 05:17:54;;;;;;;;;;;;;;;;;;5089344;28;1090;-79
2022/06/03 05:20:19;;;;;;;;;;;;;;;;;;5088131;28;1334;-78
2022/06/03 05:23:03;;;;;;;;;;;;;;;;;;5104103;28;1152;-79
2022/06/03 05:25:37;;;;;;;;;;;;;;;;;;5084678;28;1281;-78
2022/06/03 05:28:03;;;;;;;;;;;;;;;;;;5106219;28;1140;-79
2022/06/03 05:30:38;;;;;;;;;;;;;;;;;;5087601;28;1878;-79
2022/06/03 05:33:23;;;;;;;;;;;;;;;;;;5106496;27;1223;-78
2022/06/03 05:36:11;;;;;;;;;;;;;;;;;;5087485;28;1328;-78
2022/06/03 05:39:06;;;;;;;;;;;;;;;;;;5072527;28;1325;-79
2022/06/03 05:44:47;;;;;;;;;;;;;;;;;;5107824;28;1066;-79
2022/06/03 05:47:18;;;;;;;;;;;;;;;;;;5031637;28;1234;-78
2022/06/03 05:50:02;;;;;;;;;;;;;;;;;;5107014;27;1906;-78
2022/06/03 05:52:53;;;;;;;;;;;;;;;;;;5104101;27;1241;-76
2022/06/03 05:55:44;;;;;;;;;;;;;;;;;;5125331;27;1124;-77
2022/06/03 05:58:25;;;;;;;;;;;;;;;;;;5109993;27;1330;-77
2022/06/03 06:01:22;;;;;;;;;;;;;;;;;;5125801;27;1136;-78
2022/06/03 06:04:06;;;;;;;;;;;;;;;;;;5060538;28;1238;-78
2022/06/03 06:06:32;;;;;;;;;;;;;;;;;;5082941;28;1231;-79
2022/06/03 06:09:10;;;;;;;;;;;;;;;;;;5084351;28;1962;-76
2022/06/03 06:11:56;;;;;;;;;;;;;;;;;;5080195;28;1204;-77
2022/06/03 06:14:28;;;;;;;;;;;;;;;;;;5087437;28;1207;-77
2022/06/03 06:16:57;;;;;;;;;;;;;;;;;;5100530;28;1077;-79
2022/06/03 06:19:36;;;;;;;;;;;;;;;;;;5086244;28;1252;-77
2022/06/03 06:22:09;;;;;;;;;;;;;;;;;;5083989;28;1246;-79
2022/06/03 06:24:34;;;;;;;;;;;;;;;;;;5086012;28;1192;-77
2022/06/03 06:27:20;;;;;;;;;;;;;;;;;;5100088;27;1257;-77
2022/06/03 06:30:05;;;;;;;;;;;;;;;;;;5103855;27;1956;-77
2022/06/03 06:32:30;;;;;;;;;;;;;;;;;;5091722;27;1278;-77
2022/06/03 06:35:15;;;;;;;;;;;;;;;;;;5103873;27;1195;-78
2022/06/03 06:37:50;;;;;;;;;;;;;;;;;;5069646;27;1334;-78
2022/06/03 06:40:15;;;;;;;;;;;;;;;;;;5105228;27;1348;-78
2022/06/03 06:42:59;;;;;;;;;;;;;;;;;;5105668;27;1321;-77
2022/06/03 06:45:30;;;;;;;;;;;;;;;;;;5119917;27;1148;-77
2022/06/03 06:48:01;;;;;;;;;;;;;;;;;;5086160;28;1147;-79
2022/06/03 06:50:28;;;;;;;;;;;;;;;;;;5104708;28;1968;-79
2022/06/03 06:53:23;;;;;;;;;;;;;;;;;;5105847;27;1215;-77
2022/06/03 06:55:52;;;;;;;;;;;;;;;;;;5089085;27;1405;-78
2022/06/03 06:58:43;;;;;;;;;;;;;;;;;;5107968;27;1152;-77
2022/06/03 07:01:14;;;;;;;;;;;;;;;;;;5099788;28;1423;-79
2022/06/03 07:03:44;;;;;;;;;;;;;;;;;;5084936;28;1333;-78
2022/06/03 07:06:21;;;;;;;;;;;;;;;;;;5095085;27;1386;-79
2022/06/03 07:08:51;;;;;;;;;;;;;;;;;;5101377;27;1182;-79
2022/06/03 07:11:36;;;;;;;;;;;;;;;;;;5079566;28;1886;-79
2022/06/03 07:14:07;;;;;;;;;;;;;;;;;;5084505;28;1231;-78
2022/06/03 07:19:48;;;;;;;;;;;;;;;;;;5112658;27;1001;-79
2022/06/03 07:22:22;;;;;;;;;;;;;;;;;;5098686;28;1138;-78
2022/06/03 07:25:12;;;;;;;;;;;;;;;;;;5103776;28;1064;-78
2022/06/03 07:27:43;;;;;;;;;;;;;;;;;;5087858;28;1199;-79
2022/06/03 07:30:11;;;;;;;;;;;;;;;;;;5086873;28;1898;-80
2022/06/03 07:32:42;;;;;;;;;;;;;;;;;;5086195;28;1306;-79
2022/06/03 07:35:26;;;;;;;;;;;;;;;;;;5085118;28;1207;-78
2022/06/03 07:37:57;;;;;;;;;;;;;;;;;;5076922;28;1259;-80
2022/06/03 07:40:32;;;;;;;;;;;;;;;;;;5105839;27;1219;-79
2022/06/03 07:43:16;;;;;;;;;;;;;;;;;;5103349;27;1204;-79
2022/06/03 07:45:45;;;;;;;;;;;;;;;;;;5103332;28;1132;-80
2022/06/03 07:48:16;;;;;;;;;;;;;;;;;;5099596;28;1283;-80
2022/06/03 07:50:51;;;;;;;;;;;;;;;;;;5104549;28;1975;-78
2022/06/03 07:53:19;;;;;;;;;;;;;;;;;;5120563;27;1116;-80
2022/06/03 07:55:51;;;;;;;;;;;;;;;;;;5103452;28;1206;-78
2022/06/03 07:58:17;;;;;;;;;;;;;;;;;;5105926;28;1261;-80
2022/06/03 08:00:45;;;;;;;;;;;;;;;;;;5106034;28;1152;-79
2022/06/03 08:03:18;;;;;;;;;;;;;;;;;;5089292;28;1096;-81
2022/06/03 08:05:45;;;;;;;;;;;;;;;;;;5105483;28;1199;-78
2022/06/03 08:10:58;;;;;;;;;;;;;;;;;;5119142;28;1905;-77
2022/06/03 08:13:38;;;;;;;;;;;;;;;;;;5124137;28;1243;-79
2022/06/03 08:16:05;;;;;;;;;;;;;;;;;;5094398;28;1300;-79
2022/06/03 08:18:34;;;;;;;;;;;;;;;;;;5103881;28;1030;-77
2022/06/03 08:21:15;;;;;;;;;;;;;;;;;;5082629;28;1214;-77
2022/06/03 08:23:43;;;;;;;;;;;;;;;;;;5081516;28;1127;-77
2022/06/03 08:26:16;;;;;;;;;;;;;;;;;;5099357;28;1207;-77
2022/06/03 08:28:47;;;;;;;;;;;;;;;;;;5105135;28;1321;-78
2022/06/03 08:31:13;;;;;;;;;;;;;;;;;;5105246;28;1963;-78
2022/06/03 08:33:47;;;;;;;;;;;;;;;;;;5089314;27;1112;-78
2022/06/03 08:36:18;;;;;;;;;;;;;;;;;;5108032;27;1507;-78
2022/06/03 08:38:51;;;;;;;;;;;;;;;;;;5104874;27;1207;-78
2022/06/03 08:41:33;;;;;;;;;;;;;;;;;;5107055;27;1316;-78
2022/06/03 08:44:08;;;;;;;;;;;;;;;;;;5127023;27;1028;-78
2022/06/03 08:46:56;;;;;;;;;;;;;;;;;;5125447;27;731;-78
2022/06/03 08:49:25;;;;;;;;;;;;;;;;;;5119162;27;2007;-75
2022/06/03 08:51:52;;;;;;;;;;;;;;;;;;5104018;27;1190;-75
2022/06/03 08:54:28;;;;;;;;;;;;;;;;;;5107235;27;1309;-75
2022/06/03 08:56:56;;;;;;;;;;;;;;;;;;5100227;27;1292;-75
2022/06/03 08:59:25;;;;;;;;;;;;;;;;;;5105239;28;1195;-75
2022/06/03 09:01:56;;;;;;;;;;;;;;;;;;5084077;28;1345;-76
2022/06/03 09:04:22;;;;;;;;;;;;;;;;;;5088695;28;1207;-75
2022/06/03 09:06:53;;;;;;;;;;;;;;;;;;5084226;28;1275;-75
2022/06/03 09:09:37;;;;;;;;;;;;;;;;;;5102861;28;1878;-75
2022/06/03 09:12:06;;;;;;;;;;;;;;;;;;5086944;27;1256;-79
2022/06/03 09:14:32;;;;;;;;;;;;;;;;;;5091397;28;1182;-79
2022/06/03 09:17:04;;;;;;;;;;;;;;;;;;5122020;27;1176;-79
2022/06/03 09:19:32;;;;;;;;;;;;;;;;;;5109496;27;1198;-81
2022/06/03 09:22:01;;;;;;;;;;;;;;;;;;5104127;27;1235;-81
2022/06/03 09:24:31;;;;;;;;;;;;;;;;;;5108706;27;1213;-80
2022/06/03 09:26:57;;;;;;;;;;;;;;;;;;5122025;27;1234;-77
2022/06/03 09:29:23;;;;;;;;;;;;;;;;;;5125358;27;1935;-78
2022/06/03 09:31:51;;;;;;;;;;;;;;;;;;5107530;27;1314;-77
2022/06/03 09:34:18;;;;;;;;;;;;;;;;;;5087420;28;1224;-77
2022/06/03 09:37:03;;;;;;;;;;;;;;;;;;5085436;28;1294;-77
2022/06/03 09:39:29;;;;;;;;;;;;;;;;;;5087264;28;1216;-76
2022/06/03 09:41:57;;;;;;;;;;;;;;;;;;5062846;28;1197;-75
2022/06/03 09:44:23;;;;;;;;;;;;;;;;;;5071718;28;1283;-79
2022/06/03 09:46:53;;;;;;;;;;;;;;;;;;5104890;28;1208;-79
2022/06/03 09:49:18;;;;;;;;;;;;;;;;;;5088906;28;1890;-78
2022/06/03 09:51:56;;;;;;;;;;;;;;;;;;5105712;28;1124;-78
2022/06/03 09:54:27;;;;;;;;;;;;;;;;;;5084766;28;1081;-79
2022/06/03 09:56:56;;;;;;;;;;;;;;;;;;5088003;27;1314;-79
2022/06/03 09:59:23;;;;;;;;;;;;;;;;;;5125795;27;1076;-79
2022/06/03 10:01:49;;;;;;;;;;;;;;;;;;5108468;27;1305;-79
2022/06/03 10:04:16;;;;;;;;;;;;;;;;;;5103331;27;1088;-79
2022/06/03 10:06:47;;;;;;;;;;;;;;;;;;5108292;27;1166;-79
2022/06/03 10:17:47;;;;;;;;;;;;;;;;;;5105604;27;1069;-79
2022/06/03 10:20:13;;;;;;;;;;;;;;;;;;5086215;28;1377;-79
2022/06/03 10:22:38;;;;;;;;;;;;;;;;;;5103452;28;1148;-79
2022/06/03 10:25:05;;;;;;;;;;;;;;;;;;5101164;28;1190;-79
2022/06/03 10:27:30;;;;;;;;;;;;;;;;;;5084874;28;1145;-80
2022/06/03 10:29:58;;;;;;;;;;;;;;;;;;5068217;28;1909;-78
2022/06/03 10:32:24;;;;;;;;;;;;;;;;;;5101655;27;1074;-79
2022/06/03 10:34:49;;;;;;;;;;;;;;;;;;5105280;27;1251;-78
2022/06/03 10:37:19;;;;;;;;;;;;;;;;;;5083577;27;1208;-80
2022/06/03 10:39:44;;;;;;;;;;;;;;;;;;5106452;27;1225;-80
2022/06/03 10:42:17;;;;;;;;;;;;;;;;;;5100856;27;1289;-78
2022/06/03 10:44:47;;;;;;;;;;;;;;;;;;5108502;27;1217;-80
2022/06/03 10:47:14;;;;;;;;;;;;;;;;;;5103873;27;1325;-79
2022/06/03 10:49:51;;;;;;;;;;;;;;;;;;5107988;27;1965;-79
2022/06/03 11:01:06;;;;;;;;;;;;;;;;;;5125801;27;1060;-80
2022/06/03 11:03:33;;;;;;;;;;;;;;;;;;5106685;27;1217;-79
2022/06/03 11:06:07;;;;;;;;;;;;;;;;;;5104889;27;1451;-79
2022/06/03 11:09:05;;;;;;;;;;;;;;;;;;5101970;27;1128;-79
2022/06/03 11:11:34;;;;;;;;;;;;;;;;;;5077761;27;1961;-79
2022/06/03 11:14:19;;;;;;;;;;;;;;;;;;5121821;27;1033;-79
2022/06/03 11:16:48;;;;;;;;;;;;;;;;;;5105269;27;1140;-80
2022/06/03 11:19:18;;;;;;;;;;;;;;;;;;5102340;27;1164;-79
2022/06/03 11:21:43;;;;;;;;;;;;;;;;;;5105545;27;1329;-76
2022/06/03 11:24:08;;;;;;;;;;;;;;;;;;5073357;28;1235;-77
2022/06/03 11:26:37;;;;;;;;;;;;;;;;;;5093082;27;1180;-79
2022/06/03 11:29:08;;;;;;;;;;;;;;;;;;5103575;27;1399;-77
2022/06/03 11:31:37;;;;;;;;;;;;;;;;;;5104326;27;1874;-78
2022/06/03 11:34:06;;;;;;;;;;;;;;;;;;5104507;27;1238;-78
2022/06/03 11:36:35;;;;;;;;;;;;;;;;;;5103881;27;1425;-78
2022/06/03 11:39:04;;;;;;;;;;;;;;;;;;5100149;27;1317;-79
2022/06/03 11:41:37;;;;;;;;;;;;;;;;;;5104388;27;1183;-79
2022/06/03 11:44:10;;;;;;;;;;;;;;;;;;5104245;27;1282;-77
2022/06/03 11:46:42;;;;;;;;;;;;;;;;;;5103983;28;1293;-79
2022/06/03 11:49:08;;;;;;;;;;;;;;;;;;5119155;27;1399;-77
2022/06/03 11:51:34;;;;;;;;;;;;;;;;;;5104345;27;1968;-77
2022/06/03 11:54:00;;;;;;;;;;;;;;;;;;5104069;27;1218;-76
2022/06/03 11:56:28;;;;;;;;;;;;;;;;;;5097568;28;1191;-75
2022/06/03 11:58:57;;;;;;;;;;;;;;;;;;5104326;28;1270;-76
2022/06/03 12:01:45;;;;;;;;;;;;;;;;;;5099250;28;1325;-76
2022/06/03 12:04:20;;;;;;;;;;;;;;;;;;5085087;28;1296;-75
2022/06/03 12:06:49;;;;;;;;;;;;;;;;;;5083518;28;1147;-75
2022/06/03 12:09:17;;;;;;;;;;;;;;;;;;5085173;27;1956;-76
2022/06/03 12:14:46;;;;;;;;;;;;;;;;;;5112890;27;1066;-75
2022/06/03 12:17:11;;;;;;;;;;;;;;;;;;5084687;28;1266;-76
2022/06/03 12:19:41;;;;;;;;;;;;;;;;;;5097896;27;1203;-76
2022/06/03 12:22:25;;;;;;;;;;;;;;;;;;5108780;27;1253;-76
2022/06/03 12:24:52;;;;;;;;;;;;;;;;;;5098949;27;1371;-75
2022/06/03 12:27:21;;;;;;;;;;;;;;;;;;5105813;27;1208;-78
2022/06/03 12:30:01;;;;;;;;;;;;;;;;;;5124979;27;1952;-75
2022/06/03 12:32:28;;;;;;;;;;;;;;;;;;5121435;27;1143;-80
2022/06/03 12:35:13;;;;;;;;;;;;;;;;;;5105734;27;1301;-78
2022/06/03 12:37:39;;;;;;;;;;;;;;;;;;5068067;27;1464;-77
2022/06/03 12:40:20;;;;;;;;;;;;;;;;;;5097501;28;1477;-77
2022/06/03 12:42:45;;;;;;;;;;;;;;;;;;5108459;28;1124;-76
2022/06/03 12:45:13;;;;;;;;;;;;;;;;;;5068667;28;1232;-77
2022/06/03 12:47:43;;;;;;;;;;;;;;;;;;5089998;28;1293;-76
2022/06/03 12:50:21;;;;;;;;;;;;;;;;;;5104643;27;1918;-74
2022/06/03 12:52:46;;;;;;;;;;;;;;;;;;5097258;28;1293;-76
2022/06/03 12:55:12;;;;;;;;;;;;;;;;;;5089268;27;1151;-77
2022/06/03 12:57:43;;;;;;;;;;;;;;;;;;5109389;27;1383;-77
2022/06/03 13:00:17;;;;;;;;;;;;;;;;;;5090709;28;1332;-76
2022/06/03 13:02:55;;;;;;;;;;;;;;;;;;5088885;28;1191;-77
2022/06/03 13:05:29;;;;;;;;;;;;;;;;;;5107027;27;1176;-77
2022/06/03 13:07:56;;;;;;;;;;;;;;;;;;5087535;28;1208;-77
2022/06/03 13:10:23;;;;;;;;;;;;;;;;;;5082564;28;1971;-77
2022/06/03 13:12:50;;;;;;;;;;;;;;;;;;5107461;28;1101;-76
2022/06/03 13:15:21;;;;;;;;;;;;;;;;;;5084975;28;1286;-77
2022/06/03 13:17:53;;;;;;;;;;;;;;;;;;5086875;28;1315;-77
2022/06/03 13:20:35;;;;;;;;;;;;;;;;;;5066007;28;1222;-77
2022/06/03 13:23:01;;;;;;;;;;;;;;;;;;5085755;28;1200;-77
2022/06/03 13:25:31;;;;;;;;;;;;;;;;;;5064560;28;1298;-75
2022/06/03 13:28:14;;;;;;;;;;;;;;;;;;5087753;28;1293;-83
2022/06/03 13:30:40;;;;;;;;;;;;;;;;;;5087319;28;1953;-77
2022/06/03 13:33:17;;;;;;;;;;;;;;;;;;5086895;28;1310;-77
2022/06/03 13:36:01;;;;;;;;;;;;;;;;;;5085889;28;1377;-76
2022/06/03 13:38:39;;;;;;;;;;;;;;;;;;5081134;28;1255;-76
2022/06/03 13:44:19;;;;;;;;;;;;;;;;;;5103639;28;1056;-76
2022/06/03 13:46:49;;;;;;;;;;;;;;;;;;5085778;28;1133;-76
2022/06/03 13:49:24;;;;;;;;;;;;;;;;;;5085211;28;1262;-76
2022/06/03 13:51:52;;;;;;;;;;;;;;;;;;5106823;27;1191;-77
2022/06/03 13:54:23;;;;;;;;;;;;;;;;;;5096991;27;1195;-76
2022/06/03 13:57:02;;;;;;;;;;;;;;;;;;5121287;27;1119;-75
2022/06/03 13:59:32;;;;;;;;;;;;;;;;;;5104124;27;1128;-76
2022/06/03 14:01:58;;;;;;;;;;;;;;;;;;5124159;27;1163;-76
2022/06/03 14:04:27;;;;;;;;;;;;;;;;;;5122040;27;1147;-75
2022/06/03 14:06:56;;;;;;;;;;;;;;;;;;5121849;27;1136;-75
2022/06/03 14:09:23;;;;;;;;;;;;;;;;;;5097741;27;2444;-75
2022/06/03 14:11:53;;;;;;;;;;;;;;;;;;5104105;27;1325;-74
2022/06/03 14:14:23;;;;;;;;;;;;;;;;;;5122711;27;1207;-73
2022/06/03 14:16:55;;;;;;;;;;;;;;;;;;5124436;27;1147;-74
2022/06/03 14:19:23;;;;;;;;;;;;;;;;;;5102745;27;1221;-74
2022/06/03 14:21:50;;;;;;;;;;;;;;;;;;5106033;27;1192;-74
2022/06/03 14:24:27;;;;;;;;;;;;;;;;;;5099653;27;1166;-74
2022/06/03 14:26:56;;;;;;;;;;;;;;;;;;5118897;27;1080;-74
2022/06/03 14:29:24;;;;;;;;;;;;;;;;;;5121650;27;1922;-74
2022/06/03 14:31:55;;;;;;;;;;;;;;;;;;5123618;27;1224;-74
2022/06/03 14:34:20;;;;;;;;;;;;;;;;;;5103395;27;1286;-74
2022/06/03 14:36:47;;;;;;;;;;;;;;;;;;5089447;28;1107;-75
2022/06/03 14:39:21;;;;;;;;;;;;;;;;;;5081848;28;1179;-74
2022/06/03 14:41:50;;;;;;;;;;;;;;;;;;5084298;28;1333;-77
2022/06/03 14:44:17;;;;;;;;;;;;;;;;;;5085762;28;1361;-77
2022/06/03 14:46:47;;;;;;;;;;;;;;;;;;5089507;27;1192;-78
2022/06/03 14:49:15;;;;;;;;;;;;;;;;;;5122814;27;1233;-77
2022/06/03 14:51:43;;;;;;;;;;;;;;;;;;5101169;27;1957;-77
2022/06/03 14:54:11;;;;;;;;;;;;;;;;;;5081352;28;1278;-78
2022/06/03 14:56:36;;;;;;;;;;;;;;;;;;5096059;28;1124;-78
2022/06/03 14:59:05;;;;;;;;;;;;;;;;;;5083445;28;1294;-78
2022/06/03 15:01:40;;;;;;;;;;;;;;;;;;5099728;28;985;-78
2022/06/03 15:04:21;;;;;;;;;;;;;;;;;;5083460;28;1263;-78
2022/06/03 15:07:07;;;;;;;;;;;;;;;;;;5099121;27;1289;-78
2022/06/03 15:09:33;;;;;;;;;;;;;;;;;;5101804;27;1971;-77
2022/06/03 15:12:03;;;;;;;;;;;;;;;;;;5122760;27;1168;-78
2022/06/03 15:14:28;;;;;;;;;;;;;;;;;;5122882;27;1180;-78
2022/06/03 15:16:56;;;;;;;;;;;;;;;;;;5098692;28;1222;-77
2022/06/03 15:19:41;;;;;;;;;;;;;;;;;;5092438;27;1305;-78
2022/06/03 15:22:15;;;;;;;;;;;;;;;;;;5120500;27;1121;-77
2022/06/03 15:24:48;;;;;;;;;;;;;;;;;;5090384;27;1520;-77
2022/06/03 15:27:14;;;;;;;;;;;;;;;;;;5104030;27;1084;-77
2022/06/03 15:29:40;;;;;;;;;;;;;;;;;;5101370;28;1975;-78
2022/06/03 15:32:06;;;;;;;;;;;;;;;;;;5084489;28;1364;-77
2022/06/03 15:34:33;;;;;;;;;;;;;;;;;;5102920;28;1105;-77
2022/06/03 15:36:58;;;;;;;;;;;;;;;;;;5100738;28;1199;-72
2022/06/03 15:39:34;;;;;;;;;;;;;;;;;;5098130;28;1132;-72
2022/06/03 15:42:01;;;;;;;;;;;;;;;;;;5081799;28;1156;-73
2022/06/03 15:44:28;;;;;;;;;;;;;;;;;;5083184;28;1348;-71
2022/06/03 15:46:56;;;;;;;;;;;;;;;;;;5100906;28;1176;-73
2022/06/03 15:49:21;;;;;;;;;;;;;;;;;;5083326;28;1356;-72
2022/06/03 15:51:48;;;;;;;;;;;;;;;;;;5072114;28;1886;-72
2022/06/03 15:54:24;;;;;;;;;;;;;;;;;;5073922;28;1230;-72
2022/06/03 15:56:56;;;;;;;;;;;;;;;;;;5086202;28;1227;-72
2022/06/03 15:59:44;;;;;;;;;;;;;;;;;;5092193;28;1175;-73
2022/06/03 16:02:22;;;;;;;;;;;;;;;;;;5093213;28;1289;-72
2022/06/03 16:04:55;;;;;;;;;;;;;;;;;;5085655;28;1285;-72
2022/06/03 16:07:32;;;;;;;;;;;;;;;;;;5092706;28;1164;-72
2022/06/03 16:10:05;;;;;;;;;;;;;;;;;;5089203;28;1917;-71
2022/06/03 16:12:40;;;;;;;;;;;;;;;;;;5093494;28;1084;-73
2022/06/03 16:15:18;;;;;;;;;;;;;;;;;;5083535;28;1419;-76
2022/06/03 16:18:02;;;;;;;;;;;;;;;;;;5091006;28;1124;-72
2022/06/03 16:20:46;;;;;;;;;;;;;;;;;;5091547;28;1144;-72
2022/06/03 16:23:27;;;;;;;;;;;;;;;;;;5069276;28;1215;-72
2022/06/03 16:25:58;;;;;;;;;;;;;;;;;;5063918;28;1152;-71
2022/06/03 16:28:37;;;;;;;;;;;;;;;;;;5076038;28;1183;-72
2022/06/03 16:31:07;;;;;;;;;;;;;;;;;;5091544;28;1878;-72
2022/06/03 16:33:35;;;;;;;;;;;;;;;;;;5089215;28;1136;-72
2022/06/03 16:36:05;;;;;;;;;;;;;;;;;;5083340;28;1152;-75
2022/06/03 16:38:36;;;;;;;;;;;;;;;;;;5103620;28;1313;-74
2022/06/03 16:41:14;;;;;;;;;;;;;;;;;;5131174;28;1214;-74
2022/06/03 16:44:05;;;;;;;;;;;;;;;;;;5121454;28;1191;-74
2022/06/03 16:46:54;;;;;;;;;;;;;;;;;;5118082;28;1147;-74
2022/06/03 16:49:32;;;;;;;;;;;;;;;;;;5123960;28;1191;-74
2022/06/03 16:52:04;;;;;;;;;;;;;;;;;;5104506;28;1280;-73
2022/06/03 16:54:34;;;;;;;;;;;;;;;;;;5103382;27;1167;-73
2022/06/03 16:57:06;;;;;;;;;;;;;;;;;;5101674;27;1226;-74
2022/06/03 16:59:32;;;;;;;;;;;;;;;;;;5107487;27;1214;-74
2022/06/03 17:01:58;;;;;;;;;;;;;;;;;;5103843;27;1120;-74
2022/06/03 17:04:50;;;;;;;;;;;;;;;;;;5106977;27;1267;-74
2022/06/03 17:07:29;;;;;;;;;;;;;;;;;;5103417;27;1145;-73
2022/06/03 17:09:54;;;;;;;;;;;;;;;;;;5123079;27;1897;-74
2022/06/03 17:12:19;;;;;;;;;;;;;;;;;;5124064;27;1214;-74
2022/06/03 17:14:48;;;;;;;;;;;;;;;;;;5108477;27;1029;-75
2022/06/03 17:17:16;;;;;;;;;;;;;;;;;;5103037;28;1338;-74
2022/06/03 17:19:45;;;;;;;;;;;;;;;;;;5104488;28;1153;-74
2022/06/03 17:22:11;;;;;;;;;;;;;;;;;;5083482;28;1306;-74
2022/06/03 17:24:42;;;;;;;;;;;;;;;;;;5086446;28;1145;-74
2022/06/03 17:27:17;;;;;;;;;;;;;;;;;;5085934;27;1262;-74
2022/06/03 17:30:00;;;;;;;;;;;;;;;;;;5108093;27;1890;-74
2022/06/03 17:32:30;;;;;;;;;;;;;;;;;;5109911;27;1259;-74
2022/06/03 17:34:58;;;;;;;;;;;;;;;;;;5107977;27;1241;-77
2022/06/03 17:37:26;;;;;;;;;;;;;;;;;;5103506;27;1250;-76
2022/06/03 17:39:54;;;;;;;;;;;;;;;;;;5125543;27;1124;-78
2022/06/03 17:42:26;;;;;;;;;;;;;;;;;;5092713;27;1304;-76
2022/06/03 17:45:10;;;;;;;;;;;;;;;;;;5108242;27;1369;-75
2022/06/03 17:47:35;;;;;;;;;;;;;;;;;;5109036;27;1190;-75
2022/06/03 17:50:07;;;;;;;;;;;;;;;;;;5104088;27;1962;-75
2022/06/03 17:55:42;;;;;;;;;;;;;;;;;;5124971;27;750;-75
2022/06/03 17:58:30;;;;;;;;;;;;;;;;;;5107407;27;1217;-75
2022/06/03 18:01:16;;;;;;;;;;;;;;;;;;5104565;27;1170;-75
2022/06/03 18:03:56;;;;;;;;;;;;;;;;;;5104800;27;1218;-75
2022/06/03 18:06:25;;;;;;;;;;;;;;;;;;5104582;27;1162;-75
2022/06/03 18:09:06;;;;;;;;;;;;;;;;;;5104026;27;1225;-75
2022/06/03 18:11:36;;;;;;;;;;;;;;;;;;5101896;27;1941;-75
2022/06/03 18:14:25;;;;;;;;;;;;;;;;;;5102702;27;1195;-75
2022/06/03 18:17:20;;;;;;;;;;;;;;;;;;5109312;27;1113;-75
2022/06/03 18:19:45;;;;;;;;;;;;;;;;;;5085120;27;1402;-75
2022/06/03 18:22:16;;;;;;;;;;;;;;;;;;5100536;27;1341;-74
2022/06/03 18:25:02;;;;;;;;;;;;;;;;;;5104973;28;1314;-74